createdAt,value
2018-10-16T00:00:10.055Z,11.97
2018-10-16T00:01:10.233Z,12.00
2018-10-16T00:02:10.411Z,12.03
2018-10-16T00:03:10.617Z,12.12
2018-10-16T00:04:10.758Z,12.07
2018-10-16T00:05:10.943Z,12.04
2018-10-16T00:06:11.330Z,12.06
2018-10-16T00:07:11.314Z,12.03
2018-10-16T00:08:11.473Z,11.90
2018-10-16T00:09:11.653Z,11.91
2018-10-16T00:10:11.839Z,11.84
2018-10-16T00:11:12.012Z,11.84
2018-10-16T00:12:12.197Z,11.87
2018-10-16T00:13:12.355Z,11.90
2018-10-16T00:14:12.528Z,11.88
2018-10-16T00:15:12.700Z,11.81
2018-10-16T00:16:12.882Z,11.72
2018-10-16T00:17:13.048Z,11.65
2018-10-16T00:18:13.231Z,11.70
2018-10-16T00:19:13.420Z,11.66
2018-10-16T00:20:13.578Z,11.65
2018-10-16T00:21:13.749Z,11.63
2018-10-16T00:22:13.930Z,11.66
2018-10-16T00:23:14.107Z,11.69
2018-10-16T00:24:14.295Z,11.54
2018-10-16T00:25:14.476Z,11.57
2018-10-16T00:26:14.645Z,11.54
2018-10-16T00:27:14.807Z,11.54
2018-10-16T00:28:15.000Z,11.45
2018-10-16T00:29:15.169Z,11.35
2018-10-16T00:30:15.346Z,11.33
2018-10-16T00:31:15.527Z,11.33
2018-10-16T00:32:15.702Z,11.37
2018-10-16T00:33:15.873Z,11.36
2018-10-16T00:34:16.044Z,11.33
2018-10-16T00:35:16.208Z,11.33
2018-10-16T00:36:16.381Z,11.37
2018-10-16T00:37:16.572Z,11.37
2018-10-16T00:38:16.742Z,11.35
2018-10-16T00:39:16.936Z,11.26
2018-10-16T00:40:17.115Z,11.35
2018-10-16T00:41:17.293Z,11.40
2018-10-16T00:42:17.471Z,11.36
2018-10-16T00:43:17.645Z,11.35
2018-10-16T00:44:17.820Z,11.35
2018-10-16T00:45:17.999Z,11.35
2018-10-16T00:46:18.181Z,11.14
2018-10-16T00:47:18.362Z,11.10
2018-10-16T00:48:18.525Z,11.11
2018-10-16T00:49:18.707Z,11.10
2018-10-16T00:50:18.903Z,11.15
2018-10-16T00:51:19.065Z,11.19
2018-10-16T00:52:19.222Z,11.19
2018-10-16T00:53:19.406Z,11.12
2018-10-16T00:54:19.654Z,11.08
2018-10-16T00:55:19.821Z,11.12
2018-10-16T00:56:19.940Z,11.19
2018-10-16T00:57:20.085Z,11.17
2018-10-16T00:58:20.317Z,11.25
2018-10-16T00:59:20.493Z,11.30
2018-10-16T01:00:20.644Z,11.19
2018-10-16T01:01:20.829Z,11.18
2018-10-16T01:02:21.006Z,11.02
2018-10-16T01:03:21.193Z,11.12
2018-10-16T01:04:21.365Z,11.19
2018-10-16T01:05:21.544Z,11.22
2018-10-16T01:06:21.720Z,11.22
2018-10-16T01:07:21.895Z,11.11
2018-10-16T01:08:22.066Z,11.10
2018-10-16T01:09:22.241Z,11.08
2018-10-16T01:10:22.412Z,11.15
2018-10-16T01:11:22.584Z,11.17
2018-10-16T01:12:22.769Z,11.10
2018-10-16T01:13:22.925Z,11.08
2018-10-16T01:14:23.094Z,11.00
2018-10-16T01:15:23.289Z,10.97
2018-10-16T01:16:23.454Z,11.07
2018-10-16T01:17:23.682Z,11.00
2018-10-16T01:18:23.823Z,10.87
2018-10-16T01:19:23.994Z,11.02
2018-10-16T01:20:24.183Z,10.89
2018-10-16T01:21:24.302Z,10.99
2018-10-16T01:22:24.463Z,10.90
2018-10-16T01:23:24.633Z,10.75
2018-10-16T01:24:24.789Z,10.75
2018-10-16T01:25:24.968Z,10.72
2018-10-16T01:26:25.149Z,10.75
2018-10-16T01:27:25.287Z,10.81
2018-10-16T01:28:25.493Z,10.78
2018-10-16T01:29:25.623Z,10.79
2018-10-16T01:30:25.799Z,10.84
2018-10-16T01:31:25.978Z,10.75
2018-10-16T01:32:26.138Z,10.78
2018-10-16T01:33:26.305Z,10.87
2018-10-16T01:34:26.478Z,10.72
2018-10-16T01:35:26.645Z,10.69
2018-10-16T01:36:26.852Z,10.68
2018-10-16T01:37:26.980Z,10.67
2018-10-16T01:38:27.164Z,10.69
2018-10-16T01:39:27.309Z,10.82
2018-10-16T01:40:27.486Z,10.76
2018-10-16T01:41:27.644Z,10.74
2018-10-16T01:42:27.820Z,10.67
2018-10-16T01:43:28.002Z,10.69
2018-10-16T01:44:28.138Z,10.67
2018-10-16T01:45:28.322Z,10.63
2018-10-16T01:46:28.498Z,10.71
2018-10-16T01:47:28.669Z,10.75
2018-10-16T01:48:28.839Z,10.71
2018-10-16T01:49:29.013Z,10.78
2018-10-16T01:50:29.188Z,10.79
2018-10-16T01:51:29.373Z,10.82
2018-10-16T01:52:29.542Z,10.86
2018-10-16T01:53:29.714Z,10.69
2018-10-16T01:54:29.877Z,10.78
2018-10-16T01:55:30.046Z,10.69
2018-10-16T01:56:30.232Z,10.69
2018-10-16T01:57:30.387Z,10.59
2018-10-16T01:58:30.552Z,10.63
2018-10-16T01:59:30.722Z,10.60
2018-10-16T02:00:30.893Z,10.61
2018-10-16T02:01:31.046Z,10.68
2018-10-16T02:02:31.240Z,10.68
2018-10-16T02:03:31.408Z,10.68
2018-10-16T02:04:31.592Z,10.67
2018-10-16T02:05:31.778Z,10.71
2018-10-16T02:06:31.957Z,10.75
2018-10-16T02:07:32.132Z,10.71
2018-10-16T02:08:32.307Z,10.82
2018-10-16T02:09:32.474Z,10.81
2018-10-16T02:10:32.645Z,10.78
2018-10-16T02:11:32.823Z,10.68
2018-10-16T02:12:33.000Z,10.71
2018-10-16T02:13:33.153Z,10.63
2018-10-16T02:14:33.377Z,10.72
2018-10-16T02:15:33.503Z,10.71
2018-10-16T02:16:33.675Z,10.69
2018-10-16T02:17:33.854Z,10.72
2018-10-16T02:18:34.021Z,10.72
2018-10-16T02:19:34.195Z,10.72
2018-10-16T02:20:34.352Z,10.64
2018-10-16T02:21:34.538Z,10.63
2018-10-16T02:22:34.703Z,10.60
2018-10-16T02:23:34.865Z,10.57
2018-10-16T02:24:35.044Z,10.51
2018-10-16T02:25:35.220Z,10.54
2018-10-16T02:26:35.405Z,10.51
2018-10-16T02:27:35.583Z,10.41
2018-10-16T02:28:35.772Z,10.48
2018-10-16T02:29:35.931Z,10.53
2018-10-16T02:30:36.104Z,10.57
2018-10-16T02:31:36.280Z,10.51
2018-10-16T02:32:36.458Z,10.41
2018-10-16T02:33:36.630Z,10.51
2018-10-16T02:34:36.802Z,10.57
2018-10-16T02:35:36.994Z,10.56
2018-10-16T02:36:37.157Z,10.61
2018-10-16T02:37:37.324Z,10.64
2018-10-16T02:38:37.493Z,10.57
2018-10-16T02:39:37.674Z,10.64
2018-10-16T02:40:37.854Z,10.60
2018-10-16T02:41:38.031Z,10.53
2018-10-16T02:42:38.211Z,10.44
2018-10-16T02:43:38.389Z,10.40
2018-10-16T02:44:38.564Z,10.38
2018-10-16T02:45:38.754Z,10.37
2018-10-16T02:46:38.923Z,10.31
2018-10-16T02:47:39.100Z,10.33
2018-10-16T02:48:39.276Z,10.38
2018-10-16T02:49:39.455Z,10.38
2018-10-16T02:50:39.628Z,10.35
2018-10-16T02:51:39.795Z,10.33
2018-10-16T02:52:39.969Z,10.34
2018-10-16T02:53:40.138Z,10.31
2018-10-16T02:54:40.311Z,10.31
2018-10-16T02:55:40.489Z,10.35
2018-10-16T02:56:40.663Z,10.30
2018-10-16T02:57:40.841Z,10.25
2018-10-16T02:58:41.018Z,10.25
2018-10-16T02:59:41.197Z,10.41
2018-10-16T03:00:41.382Z,10.46
2018-10-16T03:01:41.542Z,10.38
2018-10-16T03:02:41.721Z,10.34
2018-10-16T03:03:41.891Z,10.40
2018-10-16T03:04:42.056Z,10.34
2018-10-16T03:05:42.234Z,10.38
2018-10-16T03:06:42.392Z,10.28
2018-10-16T03:07:42.580Z,10.19
2018-10-16T03:08:42.740Z,10.17
2018-10-16T03:09:42.915Z,10.19
2018-10-16T03:10:43.095Z,10.05
2018-10-16T03:11:43.270Z,10.02
2018-10-16T03:12:43.446Z,10.07
2018-10-16T03:13:43.611Z,10.05
2018-10-16T03:14:43.794Z,10.10
2018-10-16T03:15:43.963Z,10.05
2018-10-16T03:16:44.140Z,10.15
2018-10-16T03:17:44.319Z,10.01
2018-10-16T03:18:44.491Z,10.15
2018-10-16T03:19:44.715Z,9.98
2018-10-16T03:20:44.836Z,10.05
2018-10-16T03:21:45.028Z,9.94
2018-10-16T03:22:45.192Z,9.92
2018-10-16T03:23:45.356Z,9.95
2018-10-16T03:24:45.529Z,9.80
2018-10-16T03:25:45.709Z,9.77
2018-10-16T03:26:45.884Z,9.87
2018-10-16T03:27:46.066Z,9.84
2018-10-16T03:28:46.252Z,9.82
2018-10-16T03:29:46.410Z,9.84
2018-10-16T03:30:46.585Z,9.89
2018-10-16T03:31:46.763Z,9.84
2018-10-16T03:32:46.922Z,9.83
2018-10-16T03:33:47.098Z,9.94
2018-10-16T03:34:47.291Z,9.94
2018-10-16T03:35:47.448Z,9.89
2018-10-16T03:36:47.624Z,9.79
2018-10-16T03:37:47.797Z,9.32
2018-10-16T03:38:47.978Z,9.51
2018-10-16T03:39:48.151Z,9.59
2018-10-16T03:40:48.333Z,9.61
2018-10-16T03:41:48.495Z,9.56
2018-10-16T03:42:48.658Z,9.55
2018-10-16T03:43:48.830Z,9.59
2018-10-16T03:44:49.016Z,9.51
2018-10-16T03:45:49.164Z,9.51
2018-10-16T03:46:49.339Z,9.48
2018-10-16T03:47:49.514Z,9.56
2018-10-16T03:48:49.683Z,9.47
2018-10-16T03:49:49.857Z,9.43
2018-10-16T03:50:50.036Z,9.37
2018-10-16T03:51:50.212Z,9.43
2018-10-16T03:52:50.389Z,9.34
2018-10-16T03:53:50.567Z,9.37
2018-10-16T03:54:50.739Z,9.40
2018-10-16T03:55:50.904Z,9.36
2018-10-16T03:56:51.055Z,9.37
2018-10-16T03:57:51.222Z,9.25
2018-10-16T03:58:51.411Z,9.16
2018-10-16T03:59:51.564Z,9.25
2018-10-16T04:00:51.757Z,9.21
2018-10-16T04:01:51.902Z,9.13
2018-10-16T04:02:52.080Z,9.18
2018-10-16T04:03:52.231Z,9.18
2018-10-16T04:04:52.402Z,9.18
2018-10-16T04:05:52.569Z,9.22
2018-10-16T04:06:52.872Z,9.13
2018-10-16T04:07:52.898Z,9.13
2018-10-16T04:08:53.065Z,9.23
2018-10-16T04:09:53.243Z,9.28
2018-10-16T04:10:53.434Z,9.23
2018-10-16T04:11:53.612Z,9.22
2018-10-16T04:12:53.775Z,9.36
2018-10-16T04:13:54.014Z,9.37
2018-10-16T04:14:54.128Z,9.36
2018-10-16T04:15:54.304Z,9.40
2018-10-16T04:16:54.479Z,9.34
2018-10-16T04:17:54.658Z,9.32
2018-10-16T04:18:54.823Z,9.34
2018-10-16T04:19:55.021Z,9.39
2018-10-16T04:20:55.164Z,9.32
2018-10-16T04:21:55.335Z,9.44
2018-10-16T04:22:55.585Z,9.37
2018-10-16T04:23:55.694Z,9.32
2018-10-16T04:24:55.862Z,9.34
2018-10-16T04:25:56.037Z,9.34
2018-10-16T04:26:56.192Z,9.37
2018-10-16T04:27:56.346Z,9.34
2018-10-16T04:28:56.562Z,9.34
2018-10-16T04:29:56.715Z,9.34
2018-10-16T04:30:56.875Z,9.50
2018-10-16T04:31:57.056Z,9.48
2018-10-16T04:32:57.215Z,9.40
2018-10-16T04:33:57.410Z,9.50
2018-10-16T04:34:57.544Z,9.54
2018-10-16T04:35:57.760Z,9.48
2018-10-16T04:36:57.888Z,9.54
2018-10-16T04:37:58.050Z,9.48
2018-10-16T04:38:58.232Z,9.61
2018-10-16T04:39:58.401Z,9.59
2018-10-16T04:40:58.565Z,9.61
2018-10-16T04:41:58.729Z,9.68
2018-10-16T04:42:58.887Z,9.69
2018-10-16T04:43:59.069Z,9.66
2018-10-16T04:44:59.243Z,9.79
2018-10-16T04:45:59.415Z,9.76
2018-10-16T04:46:59.608Z,9.68
2018-10-16T04:47:59.761Z,9.66
2018-10-16T04:48:59.958Z,9.77
2018-10-16T04:50:00.120Z,9.66
2018-10-16T04:51:00.282Z,9.64
2018-10-16T04:52:00.457Z,9.69
2018-10-16T04:53:00.623Z,9.66
2018-10-16T04:54:00.791Z,9.69
2018-10-16T04:55:00.991Z,9.68
2018-10-16T04:56:01.234Z,9.58
2018-10-16T04:57:01.297Z,9.34
2018-10-16T04:58:01.466Z,9.37
2018-10-16T04:59:01.636Z,9.40
2018-10-16T05:00:01.815Z,9.48
2018-10-16T05:01:01.996Z,9.44
2018-10-16T05:02:02.183Z,9.48
2018-10-16T05:03:02.349Z,9.58
2018-10-16T05:04:02.592Z,9.62
2018-10-16T05:05:02.669Z,9.59
2018-10-16T05:06:02.863Z,9.69
2018-10-16T05:07:03.024Z,9.69
2018-10-16T05:08:03.183Z,9.61
2018-10-16T05:09:03.360Z,9.61
2018-10-16T05:10:03.523Z,9.59
2018-10-16T05:11:03.695Z,9.56
2018-10-16T05:12:03.845Z,9.55
2018-10-16T05:13:04.079Z,9.46
2018-10-16T05:14:04.196Z,9.43
2018-10-16T05:15:04.365Z,9.41
2018-10-16T05:16:04.548Z,9.41
2018-10-16T05:17:04.693Z,9.39
2018-10-16T05:18:04.865Z,9.44
2018-10-16T05:19:05.056Z,9.37
2018-10-16T05:20:05.228Z,9.54
2018-10-16T05:21:05.394Z,9.51
2018-10-16T05:22:05.557Z,9.54
2018-10-16T05:23:05.730Z,9.47
2018-10-16T05:24:05.900Z,9.55
2018-10-16T05:25:06.077Z,9.47
2018-10-16T05:26:06.251Z,9.50
2018-10-16T05:27:06.441Z,9.48
2018-10-16T05:28:06.619Z,9.59
2018-10-16T05:29:06.798Z,9.68
2018-10-16T05:30:06.973Z,9.72
2018-10-16T05:31:07.258Z,9.68
2018-10-16T05:32:07.313Z,9.76
2018-10-16T05:33:07.470Z,9.73
2018-10-16T05:34:07.647Z,9.59
2018-10-16T05:35:07.821Z,9.62
2018-10-16T05:36:07.994Z,9.55
2018-10-16T05:37:08.172Z,9.50
2018-10-16T05:38:08.345Z,9.32
2018-10-16T05:39:08.534Z,9.21
2018-10-16T05:40:08.693Z,9.18
2018-10-16T05:41:08.849Z,9.16
2018-10-16T05:42:09.037Z,9.18
2018-10-16T05:43:09.212Z,9.19
2018-10-16T05:44:09.392Z,9.16
2018-10-16T05:45:09.563Z,9.21
2018-10-16T05:46:09.747Z,9.08
2018-10-16T05:47:09.932Z,8.94
2018-10-16T05:48:10.089Z,8.97
2018-10-16T05:49:10.263Z,9.11
2018-10-16T05:50:10.438Z,9.08
2018-10-16T05:51:10.619Z,9.06
2018-10-16T05:52:10.797Z,9.13
2018-10-16T05:53:10.967Z,9.08
2018-10-16T05:54:11.159Z,9.00
2018-10-16T05:55:11.320Z,8.69
2018-10-16T05:56:11.484Z,8.64
2018-10-16T05:57:11.652Z,8.67
2018-10-16T05:58:11.822Z,8.84
2018-10-16T05:59:11.995Z,8.88
2018-10-16T06:00:12.172Z,8.95
2018-10-16T06:01:12.354Z,9.10
2018-10-16T06:02:12.522Z,9.04
2018-10-16T06:03:12.698Z,9.18
2018-10-16T06:04:12.861Z,9.22
2018-10-16T06:05:13.073Z,9.18
2018-10-16T06:06:13.515Z,9.25
2018-10-16T06:07:13.401Z,9.19
2018-10-16T06:08:13.588Z,9.29
2018-10-16T06:09:13.759Z,9.34
2018-10-16T06:10:13.931Z,9.37
2018-10-16T06:11:14.090Z,9.34
2018-10-16T06:12:14.299Z,9.36
2018-10-16T06:13:14.430Z,9.46
2018-10-16T06:14:14.613Z,9.54
2018-10-16T06:15:14.789Z,9.55
2018-10-16T06:16:14.962Z,9.61
2018-10-16T06:17:15.128Z,9.66
2018-10-16T06:18:15.306Z,9.72
2018-10-16T06:19:15.492Z,9.82
2018-10-16T06:20:15.664Z,9.86
2018-10-16T06:21:15.827Z,9.99
2018-10-16T06:22:16.012Z,10.19
2018-10-16T06:23:16.172Z,10.35
2018-10-16T06:24:16.406Z,10.49
2018-10-16T06:25:16.556Z,10.60
2018-10-16T06:26:16.736Z,10.67
2018-10-16T06:27:16.914Z,10.72
2018-10-16T06:28:17.096Z,10.90
2018-10-16T06:29:17.268Z,11.19
2018-10-16T06:30:17.524Z,11.36
2018-10-16T06:31:17.600Z,11.48
2018-10-16T06:32:17.780Z,11.59
2018-10-16T06:33:18.063Z,11.78
2018-10-16T06:34:18.161Z,11.86
2018-10-16T06:35:18.358Z,12.10
2018-10-16T06:36:18.515Z,12.24
2018-10-16T06:37:18.688Z,12.39
2018-10-16T06:38:18.873Z,12.49
2018-10-16T06:39:19.051Z,12.43
2018-10-16T06:40:19.271Z,12.62
2018-10-16T06:41:19.526Z,12.75
2018-10-16T06:42:19.622Z,12.76
2018-10-16T06:43:19.788Z,12.39
2018-10-16T06:44:19.951Z,12.50
2018-10-16T06:45:20.146Z,12.49
2018-10-16T06:46:20.333Z,12.62
2018-10-16T06:47:20.578Z,12.70
2018-10-16T06:48:20.969Z,12.75
2018-10-16T06:49:20.832Z,12.73
2018-10-16T06:50:21.013Z,12.70
2018-10-16T06:51:21.191Z,12.68
2018-10-16T06:52:21.363Z,12.54
2018-10-16T06:53:21.608Z,12.53
2018-10-16T06:54:21.716Z,12.24
2018-10-16T06:55:21.899Z,12.18
2018-10-16T06:56:22.059Z,11.70
2018-10-16T06:57:22.246Z,11.37
2018-10-16T06:58:22.413Z,11.52
2018-10-16T06:59:22.574Z,11.36
2018-10-16T07:00:22.810Z,11.43
2018-10-16T07:01:22.890Z,11.54
2018-10-16T07:02:23.086Z,11.72
2018-10-16T07:03:23.257Z,11.80
2018-10-16T07:04:23.435Z,11.83
2018-10-16T07:05:23.610Z,11.90
2018-10-16T07:06:23.844Z,11.91
2018-10-16T07:07:24.060Z,12.10
2018-10-16T07:08:24.144Z,12.04
2018-10-16T07:09:24.306Z,12.25
2018-10-16T07:10:24.486Z,12.15
2018-10-16T07:11:24.654Z,12.10
2018-10-16T07:12:24.823Z,11.95
2018-10-16T07:13:25.000Z,11.95
2018-10-16T07:14:25.199Z,11.99
2018-10-16T07:15:25.341Z,11.78
2018-10-16T07:16:25.522Z,11.68
2018-10-16T07:17:25.699Z,11.65
2018-10-16T07:18:25.878Z,11.68
2018-10-16T07:19:26.057Z,11.88
2018-10-16T07:20:26.234Z,11.90
2018-10-16T07:21:26.447Z,11.90
2018-10-16T07:22:26.592Z,11.83
2018-10-16T07:23:26.907Z,11.69
2018-10-16T07:24:26.937Z,11.54
2018-10-16T07:25:27.111Z,11.26
2018-10-16T07:26:27.291Z,11.47
2018-10-16T07:27:27.471Z,11.77
2018-10-16T07:28:27.659Z,11.73
2018-10-16T07:29:27.834Z,11.86
2018-10-16T07:30:28.026Z,12.25
2018-10-16T07:31:28.191Z,12.39
2018-10-16T07:32:28.367Z,12.15
2018-10-16T07:33:28.543Z,12.46
2018-10-16T07:34:28.712Z,12.42
2018-10-16T07:35:28.898Z,12.49
2018-10-16T07:36:29.077Z,12.75
2018-10-16T07:37:29.255Z,12.76
2018-10-16T07:38:29.598Z,12.53
2018-10-16T07:39:29.605Z,12.76
2018-10-16T07:40:29.783Z,12.97
2018-10-16T07:41:29.955Z,12.67
2018-10-16T07:42:30.138Z,12.90
2018-10-16T07:43:30.318Z,13.16
2018-10-16T07:44:30.513Z,13.13
2018-10-16T07:45:30.679Z,13.20
2018-10-16T07:46:30.900Z,13.05
2018-10-16T07:47:31.028Z,12.98
2018-10-16T07:48:31.393Z,12.98
2018-10-16T07:49:31.356Z,13.01
2018-10-16T07:50:31.587Z,13.01
2018-10-16T07:51:31.733Z,13.05
2018-10-16T07:52:31.914Z,12.91
2018-10-16T07:53:32.093Z,12.83
2018-10-16T07:54:32.266Z,12.93
2018-10-16T07:55:32.446Z,13.01
2018-10-16T07:56:32.636Z,12.85
2018-10-16T07:57:32.809Z,13.00
2018-10-16T07:58:33.000Z,12.53
2018-10-16T07:59:33.189Z,12.12
2018-10-16T08:00:33.333Z,12.22
2018-10-16T08:01:33.507Z,12.28
2018-10-16T08:02:33.680Z,11.94
2018-10-16T08:03:33.860Z,11.97
2018-10-16T08:04:34.042Z,12.10
2018-10-16T08:05:34.217Z,12.13
2018-10-16T08:06:34.396Z,12.04
2018-10-16T08:07:34.565Z,12.15
2018-10-16T08:08:34.754Z,12.27
2018-10-16T08:09:34.926Z,12.36
2018-10-16T08:10:35.102Z,12.45
2018-10-16T08:11:35.280Z,12.55
2018-10-16T08:12:35.475Z,12.55
2018-10-16T08:13:35.639Z,12.55
2018-10-16T08:14:35.812Z,12.67
2018-10-16T08:15:35.990Z,12.65
2018-10-16T08:16:36.179Z,12.79
2018-10-16T08:17:36.355Z,12.68
2018-10-16T08:18:36.536Z,12.62
2018-10-16T08:19:36.711Z,12.72
2018-10-16T08:20:36.886Z,12.83
2018-10-16T08:21:37.089Z,13.00
2018-10-16T08:22:37.248Z,13.11
2018-10-16T08:23:37.421Z,13.15
2018-10-16T08:24:37.603Z,13.19
2018-10-16T08:25:37.795Z,13.16
2018-10-16T08:26:37.979Z,13.22
2018-10-16T08:27:38.142Z,13.12
2018-10-16T08:28:38.319Z,13.19
2018-10-16T08:29:38.499Z,13.18
2018-10-16T08:31:38.851Z,13.28
2018-10-16T08:32:39.019Z,13.13
2018-10-16T08:33:39.195Z,13.16
2018-10-16T08:34:39.376Z,12.98
2018-10-16T08:35:39.560Z,12.98
2018-10-16T08:36:39.771Z,13.01
2018-10-16T08:37:39.957Z,13.15
2018-10-16T08:38:40.066Z,13.19
2018-10-16T08:39:40.238Z,13.11
2018-10-16T08:40:40.398Z,13.23
2018-10-16T08:41:40.618Z,13.25
2018-10-16T08:42:40.823Z,13.19
2018-10-16T08:43:40.975Z,13.31
2018-10-16T08:44:41.160Z,13.22
2018-10-16T08:45:41.325Z,13.42
2018-10-16T08:46:41.506Z,13.44
2018-10-16T08:47:41.769Z,13.54
2018-10-16T08:48:41.859Z,13.59
2018-10-16T08:49:42.038Z,13.57
2018-10-16T08:50:42.218Z,13.56
2018-10-16T08:51:42.394Z,13.59
2018-10-16T08:52:42.578Z,13.74
2018-10-16T08:53:42.745Z,13.71
2018-10-16T08:54:42.932Z,13.87
2018-10-16T08:55:43.097Z,13.93
2018-10-16T08:56:43.277Z,13.95
2018-10-16T08:57:43.460Z,13.97
2018-10-16T08:58:43.651Z,13.99
2018-10-16T09:00:43.996Z,14.14
2018-10-16T09:01:44.164Z,14.11
2018-10-16T09:02:44.338Z,14.14
2018-10-16T09:03:44.512Z,14.14
2018-10-16T09:04:44.705Z,14.28
2018-10-16T09:05:44.867Z,14.35
2018-10-16T09:06:45.192Z,14.62
2018-10-16T09:07:45.183Z,14.65
2018-10-16T09:08:45.356Z,14.89
2018-10-16T09:09:45.539Z,15.03
2018-10-16T09:10:45.739Z,15.06
2018-10-16T09:12:46.126Z,15.37
2018-10-16T09:13:46.350Z,15.17
2018-10-16T09:14:46.458Z,14.97
2018-10-16T09:15:46.645Z,15.00
2018-10-16T09:16:46.811Z,15.04
2018-10-16T09:17:46.987Z,14.72
2018-10-16T09:18:47.175Z,14.58
2018-10-16T09:19:47.332Z,14.40
2018-10-16T09:20:47.518Z,14.37
2018-10-16T09:21:47.731Z,14.45
2018-10-16T09:22:47.860Z,14.53
2018-10-16T09:23:48.027Z,14.69
2018-10-16T09:24:48.263Z,15.17
2018-10-16T09:25:48.426Z,15.51
2018-10-16T09:26:48.622Z,15.82
2018-10-16T09:27:48.759Z,16.01
2018-10-16T09:28:48.954Z,15.95
2018-10-16T09:29:49.138Z,15.97
2018-10-16T09:30:49.391Z,15.67
2018-10-16T09:31:49.518Z,15.88
2018-10-16T09:32:49.678Z,16.15
2018-10-16T09:33:49.884Z,16.53
2018-10-16T09:34:50.058Z,16.94
2018-10-16T09:35:50.231Z,17.27
2018-10-16T09:36:50.391Z,17.34
2018-10-16T09:37:50.733Z,17.16
2018-10-16T09:38:50.753Z,17.46
2018-10-16T09:39:50.932Z,16.94
2018-10-16T09:40:51.103Z,17.11
2018-10-16T09:41:51.300Z,17.27
2018-10-16T09:42:51.453Z,17.63
2018-10-16T09:43:51.622Z,17.72
2018-10-16T09:44:51.785Z,17.87
2018-10-16T09:45:51.962Z,17.57
2018-10-16T09:46:52.139Z,17.23
2018-10-16T09:47:52.326Z,16.96
2018-10-16T09:48:52.539Z,16.97
2018-10-16T09:49:52.688Z,16.99
2018-10-16T09:50:52.869Z,17.31
2018-10-16T09:51:53.084Z,17.74
2018-10-16T09:52:53.320Z,17.80
2018-10-16T09:53:53.461Z,18.11
2018-10-16T09:54:53.636Z,18.15
2018-10-16T09:55:53.822Z,17.98
2018-10-16T09:56:54.000Z,17.44
2018-10-16T09:57:54.202Z,17.67
2018-10-16T09:58:54.366Z,17.94
2018-10-16T09:59:54.548Z,18.04
2018-10-16T10:00:54.812Z,18.15
2018-10-16T10:01:54.904Z,18.01
2018-10-16T10:02:55.073Z,18.00
2018-10-16T10:03:55.251Z,17.95
2018-10-16T10:04:55.431Z,17.67
2018-10-16T10:05:55.620Z,17.42
2018-10-16T10:06:55.755Z,17.38
2018-10-16T10:07:55.976Z,17.33
2018-10-16T10:08:56.139Z,17.26
2018-10-16T10:09:56.307Z,17.36
2018-10-16T10:10:56.517Z,17.33
2018-10-16T10:11:56.657Z,17.39
2018-10-16T10:12:56.811Z,17.52
2018-10-16T10:13:56.990Z,17.54
2018-10-16T10:14:57.167Z,17.45
2018-10-16T10:15:57.344Z,17.33
2018-10-16T10:16:57.516Z,17.52
2018-10-16T10:17:57.707Z,17.90
2018-10-16T10:18:57.893Z,18.58
2018-10-16T10:19:58.073Z,19.11
2018-10-16T10:20:58.257Z,18.78
2018-10-16T10:21:58.420Z,19.26
2018-10-16T10:22:58.596Z,19.33
2018-10-16T10:23:58.792Z,18.44
2018-10-16T10:24:59.028Z,18.22
2018-10-16T10:25:59.127Z,18.45
2018-10-16T10:26:59.303Z,18.52
2018-10-16T10:27:59.484Z,18.49
2018-10-16T10:28:59.681Z,18.68
2018-10-16T10:29:59.844Z,18.80
2018-10-16T10:31:00.040Z,18.40
2018-10-16T10:32:00.233Z,18.41
2018-10-16T10:33:00.414Z,18.52
2018-10-16T10:34:00.558Z,18.71
2018-10-16T10:35:00.761Z,18.62
2018-10-16T10:36:00.981Z,18.63
2018-10-16T10:37:01.184Z,18.66
2018-10-16T10:38:01.334Z,18.45
2018-10-16T10:39:01.568Z,18.50
2018-10-16T10:40:01.726Z,18.35
2018-10-16T10:41:01.884Z,18.45
2018-10-16T10:42:02.166Z,18.01
2018-10-16T10:43:02.275Z,18.03
2018-10-16T10:44:02.445Z,18.35
2018-10-16T10:45:02.607Z,18.01
2018-10-16T10:46:02.781Z,18.63
2018-10-16T10:47:02.943Z,18.95
2018-10-16T10:48:03.129Z,19.58
2018-10-16T10:49:03.311Z,19.59
2018-10-16T10:50:03.595Z,19.62
2018-10-16T10:51:03.837Z,19.48
2018-10-16T10:52:03.812Z,19.27
2018-10-16T10:53:04.004Z,19.39
2018-10-16T10:54:04.172Z,19.04
2018-10-16T10:55:04.367Z,18.93
2018-10-16T10:56:04.521Z,19.16
2018-10-16T10:57:05.007Z,19.04
2018-10-16T10:58:04.858Z,19.30
2018-10-16T10:59:05.031Z,19.30
2018-10-16T11:00:05.213Z,19.30
2018-10-16T11:01:05.380Z,19.33
2018-10-16T11:02:05.590Z,19.29
2018-10-16T11:03:05.770Z,19.31
2018-10-16T11:04:05.928Z,19.36
2018-10-16T11:05:06.118Z,19.11
2018-10-16T11:06:06.300Z,19.08
2018-10-16T11:07:06.459Z,19.14
2018-10-16T11:08:06.634Z,19.09
2018-10-16T11:09:06.936Z,18.96
2018-10-16T11:10:06.998Z,19.04
2018-10-16T11:11:07.535Z,19.14
2018-10-16T11:12:07.359Z,19.40
2018-10-16T11:13:07.569Z,19.39
2018-10-16T11:14:07.721Z,19.45
2018-10-16T11:15:08.000Z,19.63
2018-10-16T11:16:08.083Z,19.56
2018-10-16T11:17:08.268Z,19.69
2018-10-16T11:18:08.444Z,19.81
2018-10-16T11:19:08.651Z,19.81
2018-10-16T11:20:08.818Z,19.66
2018-10-16T11:21:09.093Z,19.33
2018-10-16T11:22:09.212Z,19.39
2018-10-16T11:23:09.381Z,19.45
2018-10-16T11:24:09.544Z,19.47
2018-10-16T11:25:09.747Z,19.36
2018-10-16T11:26:09.908Z,19.45
2018-10-16T11:27:10.255Z,19.74
2018-10-16T11:28:10.263Z,19.73
2018-10-16T11:29:10.451Z,19.69
2018-10-16T11:30:10.688Z,19.76
2018-10-16T11:31:10.780Z,19.77
2018-10-16T11:32:10.972Z,19.99
2018-10-16T11:33:11.250Z,19.95
2018-10-16T11:34:11.379Z,20.04
2018-10-16T11:35:11.613Z,20.07
2018-10-16T11:36:11.768Z,20.04
2018-10-16T11:37:11.941Z,19.99
2018-10-16T11:38:12.137Z,20.10
2018-10-16T11:39:12.364Z,20.16
2018-10-16T11:40:12.489Z,20.37
2018-10-16T11:41:12.667Z,20.31
2018-10-16T11:42:12.859Z,20.25
2018-10-16T11:43:13.034Z,20.28
2018-10-16T11:44:13.219Z,20.34
2018-10-16T11:45:13.569Z,20.50
2018-10-16T11:46:13.601Z,20.43
2018-10-16T11:47:13.777Z,20.52
2018-10-16T11:48:13.955Z,20.56
2018-10-16T11:49:14.132Z,20.62
2018-10-16T11:50:14.370Z,20.66
2018-10-16T11:51:14.506Z,20.56
2018-10-16T11:52:14.720Z,20.34
2018-10-16T11:53:14.856Z,20.47
2018-10-16T11:54:15.053Z,20.52
2018-10-16T11:55:15.236Z,20.50
2018-10-16T11:56:15.533Z,20.36
2018-10-16T11:57:15.578Z,20.09
2018-10-16T11:58:15.756Z,19.99
2018-10-16T11:59:16.075Z,19.76
2018-10-16T12:00:16.126Z,19.48
2018-10-16T12:01:16.294Z,19.62
2018-10-16T12:02:16.670Z,19.64
2018-10-16T12:03:16.655Z,19.56
2018-10-16T12:04:16.856Z,19.76
2018-10-16T12:05:17.011Z,19.62
2018-10-16T12:06:17.188Z,19.67
2018-10-16T12:07:17.467Z,19.56
2018-10-16T12:08:17.640Z,19.63
2018-10-16T12:09:17.697Z,19.85
2018-10-16T12:10:17.871Z,19.91
2018-10-16T12:11:18.149Z,20.04
2018-10-16T12:12:18.248Z,20.13
2018-10-16T12:13:18.660Z,20.28
2018-10-16T12:14:18.593Z,20.44
2018-10-16T12:15:18.775Z,20.36
2018-10-16T12:16:18.983Z,20.43
2018-10-16T12:17:19.151Z,20.52
2018-10-16T12:18:19.348Z,20.62
2018-10-16T12:19:19.542Z,20.66
2018-10-16T12:20:19.707Z,20.75
2018-10-16T12:21:19.862Z,20.80
2018-10-16T12:22:20.066Z,20.93
2018-10-16T12:23:20.309Z,20.93
2018-10-16T12:24:20.453Z,20.90
2018-10-16T12:25:20.643Z,20.93
2018-10-16T12:26:20.823Z,20.97
2018-10-16T12:27:21.029Z,20.90
2018-10-16T12:28:21.195Z,20.88
2018-10-16T12:29:21.357Z,20.96
2018-10-16T12:30:21.564Z,20.87
2018-10-16T12:31:21.714Z,20.92
2018-10-16T12:32:22.013Z,20.92
2018-10-16T12:33:22.095Z,20.63
2018-10-16T12:34:22.268Z,20.40
2018-10-16T12:35:22.445Z,20.36
2018-10-16T12:36:22.656Z,20.19
2018-10-16T12:37:22.814Z,20.22
2018-10-16T12:38:23.049Z,20.07
2018-10-16T12:39:23.161Z,20.10
2018-10-16T12:40:23.348Z,20.13
2018-10-16T12:41:23.531Z,20.18
2018-10-16T12:42:26.306Z,20.24
2018-10-16T12:43:24.060Z,20.21
2018-10-16T12:44:24.149Z,20.36
2018-10-16T12:45:24.394Z,20.39
2018-10-16T12:46:24.540Z,20.24
2018-10-16T12:47:24.708Z,20.37
2018-10-16T12:48:24.875Z,20.29
2018-10-16T12:49:25.351Z,20.31
2018-10-16T12:50:25.299Z,20.43
2018-10-16T12:51:25.379Z,20.47
2018-10-16T12:52:25.570Z,20.37
2018-10-16T12:53:25.785Z,20.25
2018-10-16T12:54:25.963Z,20.09
2018-10-16T12:55:26.136Z,20.00
2018-10-16T12:56:26.334Z,19.94
2018-10-16T12:57:26.594Z,19.76
2018-10-16T12:58:26.674Z,19.71
2018-10-16T12:59:26.880Z,19.79
2018-10-16T13:00:27.041Z,19.92
2018-10-16T13:01:27.223Z,19.96
2018-10-16T13:02:27.410Z,19.99
2018-10-16T13:03:27.661Z,19.96